sensor_id;sensor_type;location;lat;lon;timestamp;P1;durP1;ratioP1;P2;durP2;ratioP2
44862;SDS011;30597;49.628;10.850;2022-11-15T00:00:05;4.03;;;3.73;;
44862;SDS011;30597;49.628;10.850;2022-11-15T00:02:31;3.70;;;3.40;;
44862;SDS011;30597;49.628;10.850;2022-11-15T00:04:57;4.87;;;4.43;;
44862;SDS011;30597;49.628;10.850;2022-11-15T00:07:22;3.70;;;3.40;;
44862;SDS011;30597;49.628;10.850;2022-11-15T00:09:48;3.20;;;2.90;;
44862;SDS011;30597;49.628;10.850;2022-11-15T00:12:13;3.63;;;3.30;;
44862;SDS011;30597;49.628;10.850;2022-11-15T00:14:39;3.37;;;3.07;;
44862;SDS011;30597;49.628;10.850;2022-11-15T00:17:04;4.60;;;4.20;;
44862;SDS011;30597;49.628;10.850;2022-11-15T00:19:30;3.97;;;3.67;;
44862;SDS011;30597;49.628;10.850;2022-11-15T00:21:56;3.80;;;3.50;;
44862;SDS011;30597;49.628;10.850;2022-11-15T00:24:21;4.00;;;3.70;;
44862;SDS011;30597;49.628;10.850;2022-11-15T00:26:47;4.03;;;3.63;;
44862;SDS011;30597;49.628;10.850;2022-11-15T00:29:13;3.97;;;3.57;;
44862;SDS011;30597;49.628;10.850;2022-11-15T00:31:38;3.30;;;3.10;;
44862;SDS011;30597;49.628;10.850;2022-11-15T00:34:04;4.20;;;3.90;;
44862;SDS011;30597;49.628;10.850;2022-11-15T00:36:32;4.20;;;3.80;;
44862;SDS011;30597;49.628;10.850;2022-11-15T00:38:58;3.57;;;3.27;;
44862;SDS011;30597;49.628;10.850;2022-11-15T00:41:23;3.83;;;3.53;;
44862;SDS011;30597;49.628;10.850;2022-11-15T00:43:49;3.73;;;3.33;;
44862;SDS011;30597;49.628;10.850;2022-11-15T00:46:14;3.70;;;3.40;;
44862;SDS011;30597;49.628;10.850;2022-11-15T00:48:40;3.07;;;2.87;;
44862;SDS011;30597;49.628;10.850;2022-11-15T00:51:06;4.03;;;3.53;;
44862;SDS011;30597;49.628;10.850;2022-11-15T00:53:31;3.80;;;3.50;;
44862;SDS011;30597;49.628;10.850;2022-11-15T00:55:57;4.47;;;4.07;;
44862;SDS011;30597;49.628;10.850;2022-11-15T00:58:23;3.60;;;3.30;;
44862;SDS011;30597;49.628;10.850;2022-11-15T01:00:48;3.57;;;3.27;;
44862;SDS011;30597;49.628;10.850;2022-11-15T01:03:14;3.70;;;3.40;;
44862;SDS011;30597;49.628;10.850;2022-11-15T01:05:39;3.80;;;3.10;;
44862;SDS011;30597;49.628;10.850;2022-11-15T01:08:05;4.00;;;3.70;;
44862;SDS011;30597;49.628;10.850;2022-11-15T01:10:30;3.77;;;3.47;;
44862;SDS011;30597;49.628;10.850;2022-11-15T01:12:56;3.47;;;3.17;;
44862;SDS011;30597;49.628;10.850;2022-11-15T01:15:22;3.63;;;3.33;;
44862;SDS011;30597;49.628;10.850;2022-11-15T01:17:47;4.07;;;3.77;;
44862;SDS011;30597;49.628;10.850;2022-11-15T01:20:13;3.50;;;3.20;;
44862;SDS011;30597;49.628;10.850;2022-11-15T01:22:39;3.57;;;3.27;;
44862;SDS011;30597;49.628;10.850;2022-11-15T01:25:04;3.77;;;3.47;;
44862;SDS011;30597;49.628;10.850;2022-11-15T01:27:30;3.83;;;3.53;;
44862;SDS011;30597;49.628;10.850;2022-11-15T01:29:55;3.50;;;3.20;;
44862;SDS011;30597;49.628;10.850;2022-11-15T01:32:21;3.43;;;3.13;;
44862;SDS011;30597;49.628;10.850;2022-11-15T01:34:47;3.57;;;3.27;;
44862;SDS011;30597;49.628;10.850;2022-11-15T01:37:12;2.93;;;2.73;;
44862;SDS011;30597;49.628;10.850;2022-11-15T01:39:38;3.03;;;2.83;;
44862;SDS011;30597;49.628;10.850;2022-11-15T01:42:03;3.57;;;3.27;;
44862;SDS011;30597;49.628;10.850;2022-11-15T01:44:48;3.60;;;3.30;;
44862;SDS011;30597;49.628;10.850;2022-11-15T01:47:34;3.70;;;3.40;;
44862;SDS011;30597;49.628;10.850;2022-11-15T01:50:06;3.17;;;2.87;;
44862;SDS011;30597;49.628;10.850;2022-11-15T01:52:35;3.80;;;3.50;;
44862;SDS011;30597;49.628;10.850;2022-11-15T01:55:21;3.40;;;3.10;;
44862;SDS011;30597;49.628;10.850;2022-11-15T01:57:50;3.70;;;3.40;;
44862;SDS011;30597;49.628;10.850;2022-11-15T02:00:19;3.57;;;3.27;;
44862;SDS011;30597;49.628;10.850;2022-11-15T02:02:45;3.40;;;3.10;;
44862;SDS011;30597;49.628;10.850;2022-11-15T02:05:10;3.57;;;3.00;;
44862;SDS011;30597;49.628;10.850;2022-11-15T02:07:36;3.57;;;3.20;;
44862;SDS011;30597;49.628;10.850;2022-11-15T02:10:21;3.70;;;3.30;;
44862;SDS011;30597;49.628;10.850;2022-11-15T02:12:48;3.67;;;3.30;;
44862;SDS011;30597;49.628;10.850;2022-11-15T02:15:15;3.83;;;3.50;;
44862;SDS011;30597;49.628;10.850;2022-11-15T02:17:57;3.27;;;2.97;;
44862;SDS011;30597;49.628;10.850;2022-11-15T02:20:45;3.23;;;3.03;;
44862;SDS011;30597;49.628;10.850;2022-11-15T02:32:32;3.60;;;3.03;;
44862;SDS011;30597;49.628;10.850;2022-11-15T02:35:52;3.03;;;2.73;;
44862;SDS011;30597;49.628;10.850;2022-11-15T02:40:57;3.07;;;2.80;;
44862;SDS011;30597;49.628;10.850;2022-11-15T02:43:26;3.50;;;3.20;;
44862;SDS011;30597;49.628;10.850;2022-11-15T02:46:15;2.93;;;2.73;;
44862;SDS011;30597;49.628;10.850;2022-11-15T02:49:20;3.80;;;3.50;;
44862;SDS011;30597;49.628;10.850;2022-11-15T02:51:47;4.00;;;3.60;;
44862;SDS011;30597;49.628;10.850;2022-11-15T02:54:17;3.33;;;2.90;;
44862;SDS011;30597;49.628;10.850;2022-11-15T02:56:49;3.40;;;3.10;;
44862;SDS011;30597;49.628;10.850;2022-11-15T03:04:53;3.30;;;3.10;;
44862;SDS011;30597;49.628;10.850;2022-11-15T03:07:29;4.77;;;2.70;;
44862;SDS011;30597;49.628;10.850;2022-11-15T03:10:05;2.83;;;2.60;;
44862;SDS011;30597;49.628;10.850;2022-11-15T03:13:06;3.10;;;2.90;;
44862;SDS011;30597;49.628;10.850;2022-11-15T03:15:41;2.93;;;2.73;;
44862;SDS011;30597;49.628;10.850;2022-11-15T03:18:17;3.17;;;2.97;;
44862;SDS011;30597;49.628;10.850;2022-11-15T03:20:48;2.90;;;2.70;;
44862;SDS011;30597;49.628;10.850;2022-11-15T03:23:15;2.47;;;2.27;;
44862;SDS011;30597;49.628;10.850;2022-11-15T03:25:43;3.03;;;2.80;;
44862;SDS011;30597;49.628;10.850;2022-11-15T03:28:19;2.90;;;2.70;;
44862;SDS011;30597;49.628;10.850;2022-11-15T03:30:48;2.83;;;2.63;;
44862;SDS011;30597;49.628;10.850;2022-11-15T03:33:18;2.77;;;2.57;;
44862;SDS011;30597;49.628;10.850;2022-11-15T03:35:45;2.87;;;2.67;;
44862;SDS011;30597;49.628;10.850;2022-11-15T03:38:15;2.93;;;2.73;;
44862;SDS011;30597;49.628;10.850;2022-11-15T03:40:45;3.73;;;3.07;;
44862;SDS011;30597;49.628;10.850;2022-11-15T03:45:56;2.60;;;2.40;;
44862;SDS011;30597;49.628;10.850;2022-11-15T03:48:33;2.60;;;2.40;;
44862;SDS011;30597;49.628;10.850;2022-11-15T03:51:02;2.80;;;2.60;;
44862;SDS011;30597;49.628;10.850;2022-11-15T03:53:29;2.80;;;2.60;;
44862;SDS011;30597;49.628;10.850;2022-11-15T03:55:55;2.90;;;2.53;;
44862;SDS011;30597;49.628;10.850;2022-11-15T03:58:21;2.63;;;2.43;;
44862;SDS011;30597;49.628;10.850;2022-11-15T04:00:46;2.70;;;2.50;;
44862;SDS011;30597;49.628;10.850;2022-11-15T04:03:12;2.90;;;2.70;;
44862;SDS011;30597;49.628;10.850;2022-11-15T04:05:37;2.60;;;2.40;;
44862;SDS011;30597;49.628;10.850;2022-11-15T04:08:03;2.50;;;2.30;;
44862;SDS011;30597;49.628;10.850;2022-11-15T04:10:28;2.20;;;2.10;;
44862;SDS011;30597;49.628;10.850;2022-11-15T04:12:54;2.87;;;2.67;;
44862;SDS011;30597;49.628;10.850;2022-11-15T04:15:21;2.50;;;2.30;;
44862;SDS011;30597;49.628;10.850;2022-11-15T04:17:49;2.60;;;2.40;;
44862;SDS011;30597;49.628;10.850;2022-11-15T04:20:18;2.70;;;2.50;;
44862;SDS011;30597;49.628;10.850;2022-11-15T04:23:05;2.60;;;2.23;;
44862;SDS011;30597;49.628;10.850;2022-11-15T04:25:53;2.57;;;2.37;;
44862;SDS011;30597;49.628;10.850;2022-11-15T04:28:20;2.60;;;2.40;;
44862;SDS011;30597;49.628;10.850;2022-11-15T04:30:46;2.70;;;2.50;;
44862;SDS011;30597;49.628;10.850;2022-11-15T04:33:12;2.30;;;2.10;;
44862;SDS011;30597;49.628;10.850;2022-11-15T04:35:38;2.70;;;2.50;;
44862;SDS011;30597;49.628;10.850;2022-11-15T04:38:04;2.80;;;2.60;;
44862;SDS011;30597;49.628;10.850;2022-11-15T04:40:31;3.30;;;3.00;;
44862;SDS011;30597;49.628;10.850;2022-11-15T04:42:57;2.37;;;2.20;;
44862;SDS011;30597;49.628;10.850;2022-11-15T04:45:23;2.40;;;2.20;;
44862;SDS011;30597;49.628;10.850;2022-11-15T04:47:48;2.43;;;2.27;;
44862;SDS011;30597;49.628;10.850;2022-11-15T04:50:14;2.03;;;1.93;;
44862;SDS011;30597;49.628;10.850;2022-11-15T04:52:41;3.20;;;2.97;;
44862;SDS011;30597;49.628;10.850;2022-11-15T04:55:11;2.80;;;2.60;;
44862;SDS011;30597;49.628;10.850;2022-11-15T04:57:37;1.93;;;1.83;;
44862;SDS011;30597;49.628;10.850;2022-11-15T05:00:04;2.33;;;2.13;;
44862;SDS011;30597;49.628;10.850;2022-11-15T05:02:30;2.53;;;2.33;;
44862;SDS011;30597;49.628;10.850;2022-11-15T05:05:16;4.40;;;2.73;;
44862;SDS011;30597;49.628;10.850;2022-11-15T05:07:42;2.47;;;2.27;;
44862;SDS011;30597;49.628;10.850;2022-11-15T05:10:07;3.00;;;2.60;;
44862;SDS011;30597;49.628;10.850;2022-11-15T05:12:33;2.60;;;2.40;;
44862;SDS011;30597;49.628;10.850;2022-11-15T05:14:59;2.60;;;2.40;;
44862;SDS011;30597;49.628;10.850;2022-11-15T05:17:24;2.80;;;2.60;;
44862;SDS011;30597;49.628;10.850;2022-11-15T05:19:50;2.40;;;2.20;;
44862;SDS011;30597;49.628;10.850;2022-11-15T05:22:16;2.20;;;2.00;;
44862;SDS011;30597;49.628;10.850;2022-11-15T05:24:43;2.40;;;2.20;;
44862;SDS011;30597;49.628;10.850;2022-11-15T05:27:08;2.20;;;2.00;;
44862;SDS011;30597;49.628;10.850;2022-11-15T05:29:34;2.50;;;2.30;;
44862;SDS011;30597;49.628;10.850;2022-11-15T05:31:59;2.30;;;2.10;;
44862;SDS011;30597;49.628;10.850;2022-11-15T05:34:25;2.73;;;2.53;;
44862;SDS011;30597;49.628;10.850;2022-11-15T05:36:51;2.30;;;2.10;;
44862;SDS011;30597;49.628;10.850;2022-11-15T05:39:18;2.00;;;1.90;;
44862;SDS011;30597;49.628;10.850;2022-11-15T05:41:44;2.70;;;2.50;;
44862;SDS011;30597;49.628;10.850;2022-11-15T05:44:14;2.30;;;2.10;;
44862;SDS011;30597;49.628;10.850;2022-11-15T05:46:41;2.80;;;2.10;;
44862;SDS011;30597;49.628;10.850;2022-11-15T05:49:07;2.00;;;1.90;;
44862;SDS011;30597;49.628;10.850;2022-11-15T05:51:36;2.47;;;2.27;;
44862;SDS011;30597;49.628;10.850;2022-11-15T05:54:02;2.20;;;2.00;;
44862;SDS011;30597;49.628;10.850;2022-11-15T05:56:28;2.00;;;1.80;;
44862;SDS011;30597;49.628;10.850;2022-11-15T05:58:54;2.20;;;2.00;;
44862;SDS011;30597;49.628;10.850;2022-11-15T06:01:21;2.73;;;2.53;;
44862;SDS011;30597;49.628;10.850;2022-11-15T06:03:47;1.93;;;1.83;;
44862;SDS011;30597;49.628;10.850;2022-11-15T06:06:13;2.13;;;2.00;;
44862;SDS011;30597;49.628;10.850;2022-11-15T06:08:38;2.20;;;2.00;;
44862;SDS011;30597;49.628;10.850;2022-11-15T06:11:07;2.23;;;2.03;;
44862;SDS011;30597;49.628;10.850;2022-11-15T06:13:32;2.40;;;2.20;;
44862;SDS011;30597;49.628;10.850;2022-11-15T06:15:59;2.63;;;2.40;;
44862;SDS011;30597;49.628;10.850;2022-11-15T06:18:25;2.63;;;2.10;;
44862;SDS011;30597;49.628;10.850;2022-11-15T06:20:51;2.23;;;2.03;;
44862;SDS011;30597;49.628;10.850;2022-11-15T06:23:17;2.07;;;1.87;;
44862;SDS011;30597;49.628;10.850;2022-11-15T06:25:42;1.97;;;1.80;;
44862;SDS011;30597;49.628;10.850;2022-11-15T06:28:08;2.17;;;1.97;;
44862;SDS011;30597;49.628;10.850;2022-11-15T06:30:33;2.20;;;2.10;;
44862;SDS011;30597;49.628;10.850;2022-11-15T06:33:00;2.70;;;2.50;;
44862;SDS011;30597;49.628;10.850;2022-11-15T06:35:29;2.37;;;1.93;;
44862;SDS011;30597;49.628;10.850;2022-11-15T06:38:01;2.80;;;2.60;;
44862;SDS011;30597;49.628;10.850;2022-11-15T06:40:33;1.80;;;1.70;;
44862;SDS011;30597;49.628;10.850;2022-11-15T06:42:59;2.40;;;2.20;;
44862;SDS011;30597;49.628;10.850;2022-11-15T06:45:25;2.37;;;2.17;;
44862;SDS011;30597;49.628;10.850;2022-11-15T06:47:51;2.47;;;2.27;;
44862;SDS011;30597;49.628;10.850;2022-11-15T06:50:17;1.97;;;1.87;;
44862;SDS011;30597;49.628;10.850;2022-11-15T06:52:42;2.13;;;2.03;;
44862;SDS011;30597;49.628;10.850;2022-11-15T06:55:08;2.40;;;2.20;;
44862;SDS011;30597;49.628;10.850;2022-11-15T06:57:33;2.40;;;2.00;;
44862;SDS011;30597;49.628;10.850;2022-11-15T06:59:59;1.93;;;1.80;;
44862;SDS011;30597;49.628;10.850;2022-11-15T07:02:25;2.40;;;2.20;;
44862;SDS011;30597;49.628;10.850;2022-11-15T07:04:51;2.30;;;2.10;;
44862;SDS011;30597;49.628;10.850;2022-11-15T07:07:16;2.37;;;2.00;;
44862;SDS011;30597;49.628;10.850;2022-11-15T07:09:42;2.40;;;2.20;;
44862;SDS011;30597;49.628;10.850;2022-11-15T07:12:07;2.40;;;2.20;;
44862;SDS011;30597;49.628;10.850;2022-11-15T07:14:33;2.43;;;2.23;;
44862;SDS011;30597;49.628;10.850;2022-11-15T07:16:59;2.10;;;2.00;;
44862;SDS011;30597;49.628;10.850;2022-11-15T07:19:24;2.20;;;2.00;;
44862;SDS011;30597;49.628;10.850;2022-11-15T07:21:50;1.70;;;1.60;;
44862;SDS011;30597;49.628;10.850;2022-11-15T07:24:16;2.20;;;2.00;;
44862;SDS011;30597;49.628;10.850;2022-11-15T07:26:41;2.17;;;1.97;;
44862;SDS011;30597;49.628;10.850;2022-11-15T07:29:07;2.20;;;2.00;;
44862;SDS011;30597;49.628;10.850;2022-11-15T07:31:32;1.90;;;1.80;;
44862;SDS011;30597;49.628;10.850;2022-11-15T07:33:58;2.27;;;2.07;;
44862;SDS011;30597;49.628;10.850;2022-11-15T07:36:23;2.10;;;1.90;;
44862;SDS011;30597;49.628;10.850;2022-11-15T07:38:49;2.53;;;2.33;;
44862;SDS011;30597;49.628;10.850;2022-11-15T07:41:15;2.17;;;1.93;;
44862;SDS011;30597;49.628;10.850;2022-11-15T07:43:40;3.07;;;2.43;;
44862;SDS011;30597;49.628;10.850;2022-11-15T07:46:06;2.37;;;2.17;;
44862;SDS011;30597;49.628;10.850;2022-11-15T07:48:34;2.60;;;2.40;;
44862;SDS011;30597;49.628;10.850;2022-11-15T07:51:00;2.67;;;2.47;;
44862;SDS011;30597;49.628;10.850;2022-11-15T07:53:26;2.07;;;1.87;;
44862;SDS011;30597;49.628;10.850;2022-11-15T07:55:52;2.40;;;2.20;;
44862;SDS011;30597;49.628;10.850;2022-11-15T07:58:18;3.40;;;2.83;;
44862;SDS011;30597;49.628;10.850;2022-11-15T08:00:44;2.60;;;2.40;;
44862;SDS011;30597;49.628;10.850;2022-11-15T08:03:10;4.00;;;2.70;;
44862;SDS011;30597;49.628;10.850;2022-11-15T08:05:38;3.27;;;2.70;;
44862;SDS011;30597;49.628;10.850;2022-11-15T08:08:06;3.17;;;2.70;;
44862;SDS011;30597;49.628;10.850;2022-11-15T08:10:32;3.17;;;2.83;;
44862;SDS011;30597;49.628;10.850;2022-11-15T08:12:59;3.47;;;2.60;;
44862;SDS011;30597;49.628;10.850;2022-11-15T08:15:26;3.53;;;3.17;;
44862;SDS011;30597;49.628;10.850;2022-11-15T08:17:56;3.47;;;3.10;;
44862;SDS011;30597;49.628;10.850;2022-11-15T08:20:22;3.33;;;3.03;;
44862;SDS011;30597;49.628;10.850;2022-11-15T08:22:48;4.53;;;3.63;;
44862;SDS011;30597;49.628;10.850;2022-11-15T08:25:14;4.90;;;3.27;;
44862;SDS011;30597;49.628;10.850;2022-11-15T08:27:40;4.33;;;3.50;;
44862;SDS011;30597;49.628;10.850;2022-11-15T08:30:06;3.87;;;3.40;;
44862;SDS011;30597;49.628;10.850;2022-11-15T08:32:31;4.90;;;3.80;;
44862;SDS011;30597;49.628;10.850;2022-11-15T08:34:57;5.37;;;3.70;;
44862;SDS011;30597;49.628;10.850;2022-11-15T08:37:22;5.53;;;4.03;;
44862;SDS011;30597;49.628;10.850;2022-11-15T08:39:48;5.03;;;4.00;;
44862;SDS011;30597;49.628;10.850;2022-11-15T08:42:14;5.50;;;4.40;;
44862;SDS011;30597;49.628;10.850;2022-11-15T08:44:41;5.57;;;3.50;;
44862;SDS011;30597;49.628;10.850;2022-11-15T08:47:06;4.87;;;3.40;;
44862;SDS011;30597;49.628;10.850;2022-11-15T08:49:32;4.20;;;3.60;;
44862;SDS011;30597;49.628;10.850;2022-11-15T08:51:58;6.03;;;4.40;;
44862;SDS011;30597;49.628;10.850;2022-11-15T08:54:23;7.00;;;3.40;;
44862;SDS011;30597;49.628;10.850;2022-11-15T08:56:49;4.90;;;3.83;;
44862;SDS011;30597;49.628;10.850;2022-11-15T08:59:14;6.40;;;4.20;;
44862;SDS011;30597;49.628;10.850;2022-11-15T09:01:40;5.13;;;3.73;;
44862;SDS011;30597;49.628;10.850;2022-11-15T09:04:05;6.90;;;4.50;;
44862;SDS011;30597;49.628;10.850;2022-11-15T09:06:31;5.10;;;3.70;;
44862;SDS011;30597;49.628;10.850;2022-11-15T09:08:57;4.97;;;3.57;;
44862;SDS011;30597;49.628;10.850;2022-11-15T09:11:22;5.27;;;4.47;;
44862;SDS011;30597;49.628;10.850;2022-11-15T09:13:48;6.40;;;4.20;;
44862;SDS011;30597;49.628;10.850;2022-11-15T09:16:14;7.37;;;4.83;;
44862;SDS011;30597;49.628;10.850;2022-11-15T09:18:40;5.43;;;4.10;;
44862;SDS011;30597;49.628;10.850;2022-11-15T09:21:06;5.30;;;3.80;;
44862;SDS011;30597;49.628;10.850;2022-11-15T09:23:32;6.33;;;4.10;;
44862;SDS011;30597;49.628;10.850;2022-11-15T09:25:59;7.47;;;4.47;;
44862;SDS011;30597;49.628;10.850;2022-11-15T09:28:26;7.07;;;4.67;;
44862;SDS011;30597;49.628;10.850;2022-11-15T09:30:55;5.30;;;4.23;;
44862;SDS011;30597;49.628;10.850;2022-11-15T09:33:22;4.80;;;4.20;;
44862;SDS011;30597;49.628;10.850;2022-11-15T09:35:48;6.17;;;3.80;;
44862;SDS011;30597;49.628;10.850;2022-11-15T09:38:13;4.20;;;3.50;;
44862;SDS011;30597;49.628;10.850;2022-11-15T09:40:39;8.17;;;4.00;;
44862;SDS011;30597;49.628;10.850;2022-11-15T09:43:08;6.93;;;4.10;;
44862;SDS011;30597;49.628;10.850;2022-11-15T09:46:08;7.57;;;4.27;;
44862;SDS011;30597;49.628;10.850;2022-11-15T09:48:57;4.83;;;4.33;;
44862;SDS011;30597;49.628;10.850;2022-11-15T09:51:37;4.73;;;4.23;;
44862;SDS011;30597;49.628;10.850;2022-11-15T09:54:16;6.30;;;4.17;;
44862;SDS011;30597;49.628;10.850;2022-11-15T09:56:45;4.67;;;4.07;;
44862;SDS011;30597;49.628;10.850;2022-11-15T10:01:48;4.60;;;3.93;;
44862;SDS011;30597;49.628;10.850;2022-11-15T10:04:14;5.07;;;4.13;;
44862;SDS011;30597;49.628;10.850;2022-11-15T10:06:43;5.30;;;3.90;;
44862;SDS011;30597;49.628;10.850;2022-11-15T10:09:21;6.27;;;4.47;;
44862;SDS011;30597;49.628;10.850;2022-11-15T10:11:56;6.17;;;4.10;;
44862;SDS011;30597;49.628;10.850;2022-11-15T10:14:22;5.70;;;4.03;;
44862;SDS011;30597;49.628;10.850;2022-11-15T10:20:04;7.70;;;4.30;;
44862;SDS011;30597;49.628;10.850;2022-11-15T10:22:45;6.60;;;4.93;;
44862;SDS011;30597;49.628;10.850;2022-11-15T10:27:44;6.23;;;4.40;;
44862;SDS011;30597;49.628;10.850;2022-11-15T10:30:35;5.60;;;3.77;;
44862;SDS011;30597;49.628;10.850;2022-11-15T10:33:10;6.07;;;4.07;;
44862;SDS011;30597;49.628;10.850;2022-11-15T10:35:37;6.30;;;3.87;;
44862;SDS011;30597;49.628;10.850;2022-11-15T10:38:06;6.00;;;4.60;;
44862;SDS011;30597;49.628;10.850;2022-11-15T10:40:34;5.23;;;4.47;;
44862;SDS011;30597;49.628;10.850;2022-11-15T10:43:19;5.30;;;3.70;;
44862;SDS011;30597;49.628;10.850;2022-11-15T10:45:45;4.60;;;3.67;;
44862;SDS011;30597;49.628;10.850;2022-11-15T10:50:36;7.10;;;4.07;;
44862;SDS011;30597;49.628;10.850;2022-11-15T10:53:03;5.27;;;3.57;;
44862;SDS011;30597;49.628;10.850;2022-11-15T10:55:36;5.10;;;3.67;;
44862;SDS011;30597;49.628;10.850;2022-11-15T11:00:46;5.40;;;3.93;;
44862;SDS011;30597;49.628;10.850;2022-11-15T11:03:28;5.30;;;4.10;;
44862;SDS011;30597;49.628;10.850;2022-11-15T11:06:03;5.43;;;3.77;;
44862;SDS011;30597;49.628;10.850;2022-11-15T11:08:31;5.47;;;3.93;;
44862;SDS011;30597;49.628;10.850;2022-11-15T11:10:57;7.40;;;5.00;;
44862;SDS011;30597;49.628;10.850;2022-11-15T11:13:26;4.63;;;3.83;;
44862;SDS011;30597;49.628;10.850;2022-11-15T11:16:02;5.40;;;4.10;;
44862;SDS011;30597;49.628;10.850;2022-11-15T11:18:49;4.63;;;4.10;;
44862;SDS011;30597;49.628;10.850;2022-11-15T11:24:14;3.90;;;3.20;;
44862;SDS011;30597;49.628;10.850;2022-11-15T11:37:35;4.73;;;3.33;;
44862;SDS011;30597;49.628;10.850;2022-11-15T11:43:03;3.70;;;3.23;;
44862;SDS011;30597;49.628;10.850;2022-11-15T11:48:57;4.30;;;3.70;;
44862;SDS011;30597;49.628;10.850;2022-11-15T11:51:38;4.53;;;3.50;;
44862;SDS011;30597;49.628;10.850;2022-11-15T11:57:06;4.50;;;3.57;;
44862;SDS011;30597;49.628;10.850;2022-11-15T11:59:58;4.60;;;3.70;;
44862;SDS011;30597;49.628;10.850;2022-11-15T12:02:43;4.80;;;3.43;;
44862;SDS011;30597;49.628;10.850;2022-11-15T12:05:22;4.73;;;4.00;;
44862;SDS011;30597;49.628;10.850;2022-11-15T12:07:59;4.30;;;3.37;;
44862;SDS011;30597;49.628;10.850;2022-11-15T12:10:29;3.70;;;3.20;;
44862;SDS011;30597;49.628;10.850;2022-11-15T12:13:00;4.97;;;4.10;;
44862;SDS011;30597;49.628;10.850;2022-11-15T12:15:41;5.00;;;4.10;;
44862;SDS011;30597;49.628;10.850;2022-11-15T12:18:15;4.10;;;3.70;;
44862;SDS011;30597;49.628;10.850;2022-11-15T12:20:47;3.43;;;3.03;;
44862;SDS011;30597;49.628;10.850;2022-11-15T12:23:28;5.23;;;3.83;;
44862;SDS011;30597;49.628;10.850;2022-11-15T12:31:12;5.40;;;4.80;;
44862;SDS011;30597;49.628;10.850;2022-11-15T12:33:58;3.40;;;3.10;;
44862;SDS011;30597;49.628;10.850;2022-11-15T12:38:50;4.80;;;3.90;;
44862;SDS011;30597;49.628;10.850;2022-11-15T12:41:29;3.93;;;3.30;;
44862;SDS011;30597;49.628;10.850;2022-11-15T12:43:57;4.63;;;3.67;;
44862;SDS011;30597;49.628;10.850;2022-11-15T12:49:11;4.30;;;3.90;;
44862;SDS011;30597;49.628;10.850;2022-11-15T12:59:53;5.67;;;3.60;;
44862;SDS011;30597;49.628;10.850;2022-11-15T13:02:24;3.93;;;3.20;;
44862;SDS011;30597;49.628;10.850;2022-11-15T13:22:38;4.33;;;3.57;;
44862;SDS011;30597;49.628;10.850;2022-11-15T13:33:36;4.07;;;3.57;;
44862;SDS011;30597;49.628;10.850;2022-11-15T13:36:06;3.83;;;3.10;;
44862;SDS011;30597;49.628;10.850;2022-11-15T13:38:38;4.80;;;3.27;;
44862;SDS011;30597;49.628;10.850;2022-11-15T13:41:48;4.97;;;3.70;;
44862;SDS011;30597;49.628;10.850;2022-11-15T13:43:58;3.50;;;3.03;;
44862;SDS011;30597;49.628;10.850;2022-11-15T13:46:26;3.70;;;3.07;;
44862;SDS011;30597;49.628;10.850;2022-11-15T13:48:54;4.50;;;3.57;;
44862;SDS011;30597;49.628;10.850;2022-11-15T13:51:42;3.33;;;3.03;;
44862;SDS011;30597;49.628;10.850;2022-11-15T13:56:37;4.30;;;3.10;;
44862;SDS011;30597;49.628;10.850;2022-11-15T13:59:25;3.40;;;2.80;;
44862;SDS011;30597;49.628;10.850;2022-11-15T14:01:56;2.77;;;2.40;;
44862;SDS011;30597;49.628;10.850;2022-11-15T14:04:25;4.57;;;3.80;;
44862;SDS011;30597;49.628;10.850;2022-11-15T14:06:58;3.90;;;2.90;;
44862;SDS011;30597;49.628;10.850;2022-11-15T14:14:51;3.13;;;2.90;;
44862;SDS011;30597;49.628;10.850;2022-11-15T14:19:55;3.43;;;3.13;;
44862;SDS011;30597;49.628;10.850;2022-11-15T14:22:23;4.17;;;3.73;;
44862;SDS011;30597;49.628;10.850;2022-11-15T14:27:41;4.53;;;3.63;;
44862;SDS011;30597;49.628;10.850;2022-11-15T14:30:17;6.10;;;3.50;;
44862;SDS011;30597;49.628;10.850;2022-11-15T14:32:44;5.03;;;3.77;;
44862;SDS011;30597;49.628;10.850;2022-11-15T14:35:20;3.60;;;3.30;;
44862;SDS011;30597;49.628;10.850;2022-11-15T14:37:47;3.17;;;2.87;;
44862;SDS011;30597;49.628;10.850;2022-11-15T14:40:15;3.20;;;2.77;;
44862;SDS011;30597;49.628;10.850;2022-11-15T14:42:42;4.73;;;3.30;;
44862;SDS011;30597;49.628;10.850;2022-11-15T14:45:14;3.57;;;3.27;;
44862;SDS011;30597;49.628;10.850;2022-11-15T14:47:41;3.63;;;3.17;;
44862;SDS011;30597;49.628;10.850;2022-11-15T14:50:11;5.00;;;4.50;;
44862;SDS011;30597;49.628;10.850;2022-11-15T14:52:37;3.50;;;3.20;;
44862;SDS011;30597;49.628;10.850;2022-11-15T14:55:04;3.87;;;2.90;;
44862;SDS011;30597;49.628;10.850;2022-11-15T14:57:47;4.53;;;3.73;;
44862;SDS011;30597;49.628;10.850;2022-11-15T15:00:13;3.30;;;2.97;;
44862;SDS011;30597;49.628;10.850;2022-11-15T15:02:40;3.40;;;2.97;;
44862;SDS011;30597;49.628;10.850;2022-11-15T15:07:43;3.87;;;3.30;;
44862;SDS011;30597;49.628;10.850;2022-11-15T15:10:10;3.07;;;2.80;;
44862;SDS011;30597;49.628;10.850;2022-11-15T15:12:36;4.10;;;3.13;;
44862;SDS011;30597;49.628;10.850;2022-11-15T15:15:02;4.37;;;3.27;;
44862;SDS011;30597;49.628;10.850;2022-11-15T15:17:28;4.90;;;3.47;;
44862;SDS011;30597;49.628;10.850;2022-11-15T15:19:56;3.53;;;3.20;;
44862;SDS011;30597;49.628;10.850;2022-11-15T15:22:22;3.30;;;3.00;;
44862;SDS011;30597;49.628;10.850;2022-11-15T15:24:51;3.33;;;2.83;;
44862;SDS011;30597;49.628;10.850;2022-11-15T15:27:16;3.70;;;2.87;;
44862;SDS011;30597;49.628;10.850;2022-11-15T15:29:42;3.50;;;2.80;;
44862;SDS011;30597;49.628;10.850;2022-11-15T15:32:08;3.40;;;2.73;;
44862;SDS011;30597;49.628;10.850;2022-11-15T15:34:35;2.93;;;2.43;;
44862;SDS011;30597;49.628;10.850;2022-11-15T15:39:48;3.10;;;2.90;;
44862;SDS011;30597;49.628;10.850;2022-11-15T15:42:14;3.43;;;2.57;;
44862;SDS011;30597;49.628;10.850;2022-11-15T15:44:40;4.10;;;3.40;;
44862;SDS011;30597;49.628;10.850;2022-11-15T15:47:12;3.00;;;2.70;;
44862;SDS011;30597;49.628;10.850;2022-11-15T15:49:40;3.43;;;3.13;;
44862;SDS011;30597;49.628;10.850;2022-11-15T15:52:06;3.93;;;2.70;;
44862;SDS011;30597;49.628;10.850;2022-11-15T15:54:31;3.63;;;3.33;;
44862;SDS011;30597;49.628;10.850;2022-11-15T15:56:57;3.53;;;2.97;;
44862;SDS011;30597;49.628;10.850;2022-11-15T15:59:22;3.17;;;2.80;;
44862;SDS011;30597;49.628;10.850;2022-11-15T16:01:48;3.63;;;3.27;;
44862;SDS011;30597;49.628;10.850;2022-11-15T16:04:14;3.00;;;2.40;;
44862;SDS011;30597;49.628;10.850;2022-11-15T16:06:40;2.57;;;2.37;;
44862;SDS011;30597;49.628;10.850;2022-11-15T16:09:10;3.50;;;3.20;;
44862;SDS011;30597;49.628;10.850;2022-11-15T16:11:44;3.37;;;3.07;;
44862;SDS011;30597;49.628;10.850;2022-11-15T16:14:11;4.80;;;3.20;;
44862;SDS011;30597;49.628;10.850;2022-11-15T16:16:37;3.60;;;2.73;;
44862;SDS011;30597;49.628;10.850;2022-11-15T16:19:03;3.50;;;3.20;;
44862;SDS011;30597;49.628;10.850;2022-11-15T16:21:29;3.73;;;2.77;;
44862;SDS011;30597;49.628;10.850;2022-11-15T16:23:55;3.27;;;2.97;;
44862;SDS011;30597;49.628;10.850;2022-11-15T16:26:24;3.07;;;2.77;;
44862;SDS011;30597;49.628;10.850;2022-11-15T16:28:52;4.40;;;3.27;;
44862;SDS011;30597;49.628;10.850;2022-11-15T16:31:18;3.37;;;3.07;;
44862;SDS011;30597;49.628;10.850;2022-11-15T16:33:46;3.87;;;3.30;;
44862;SDS011;30597;49.628;10.850;2022-11-15T16:36:25;4.10;;;3.07;;
44862;SDS011;30597;49.628;10.850;2022-11-15T16:38:51;3.40;;;2.97;;
44862;SDS011;30597;49.628;10.850;2022-11-15T16:41:17;3.00;;;2.70;;
44862;SDS011;30597;49.628;10.850;2022-11-15T16:43:49;2.70;;;2.50;;